sensor_id;sensor_type;location;lat;lon;timestamp;P1;durP1;ratioP1;P2;durP2;ratioP2
64242;SDS011;50573;51.512;5.386;2023-03-14T00:02:20;15.35;;;2.17;;
64242;SDS011;50573;51.512;5.386;2023-03-14T00:12:23;6.43;;;2.03;;
64242;SDS011;50573;51.512;5.386;2023-03-14T00:22:27;11.93;;;2.53;;
64242;SDS011;50573;51.512;5.386;2023-03-14T00:32:30;10.00;;;1.93;;
64242;SDS011;50573;51.512;5.386;2023-03-14T00:42:35;15.07;;;2.10;;
64242;SDS011;50573;51.512;5.386;2023-03-14T00:52:38;11.90;;;2.17;;
64242;SDS011;50573;51.512;5.386;2023-03-14T01:02:42;14.30;;;2.65;;
64242;SDS011;50573;51.512;5.386;2023-03-14T01:12:46;14.77;;;2.40;;
64242;SDS011;50573;51.512;5.386;2023-03-14T01:22:50;9.38;;;1.80;;
64242;SDS011;50573;51.512;5.386;2023-03-14T01:32:53;9.60;;;2.00;;
64242;SDS011;50573;51.512;5.386;2023-03-14T01:43:04;7.13;;;1.73;;
64242;SDS011;50573;51.512;5.386;2023-03-14T01:53:09;8.60;;;2.08;;
64242;SDS011;50573;51.512;5.386;2023-03-14T02:03:15;13.30;;;2.13;;
64242;SDS011;50573;51.512;5.386;2023-03-14T02:13:23;10.70;;;2.72;;
64242;SDS011;50573;51.512;5.386;2023-03-14T02:24:02;12.57;;;2.83;;
64242;SDS011;50573;51.512;5.386;2023-03-14T02:34:19;21.00;;;3.10;;
64242;SDS011;50573;51.512;5.386;2023-03-14T02:44:22;12.82;;;2.55;;
64242;SDS011;50573;51.512;5.386;2023-03-14T02:54:27;12.48;;;2.45;;
64242;SDS011;50573;51.512;5.386;2023-03-14T03:14:35;13.20;;;2.45;;
64242;SDS011;50573;51.512;5.386;2023-03-14T03:24:39;7.82;;;2.30;;
64242;SDS011;50573;51.512;5.386;2023-03-14T03:34:44;11.68;;;2.03;;
64242;SDS011;50573;51.512;5.386;2023-03-14T03:44:47;15.70;;;2.45;;
64242;SDS011;50573;51.512;5.386;2023-03-14T03:54:52;10.20;;;2.53;;
64242;SDS011;50573;51.512;5.386;2023-03-14T04:04:56;8.65;;;1.98;;
64242;SDS011;50573;51.512;5.386;2023-03-14T04:15:00;13.18;;;2.30;;
64242;SDS011;50573;51.512;5.386;2023-03-14T04:25:05;6.50;;;2.20;;
64242;SDS011;50573;51.512;5.386;2023-03-14T04:35:16;5.03;;;1.73;;
64242;SDS011;50573;51.512;5.386;2023-03-14T04:45:20;3.55;;;1.13;;
64242;SDS011;50573;51.512;5.386;2023-03-14T04:55:24;5.72;;;1.58;;
64242;SDS011;50573;51.512;5.386;2023-03-14T05:05:29;3.47;;;1.70;;
64242;SDS011;50573;51.512;5.386;2023-03-14T05:15:43;6.32;;;2.40;;
64242;SDS011;50573;51.512;5.386;2023-03-14T05:26:12;10.60;;;2.60;;
64242;SDS011;50573;51.512;5.386;2023-03-14T05:36:36;7.40;;;2.88;;
64242;SDS011;50573;51.512;5.386;2023-03-14T05:47:01;12.73;;;3.63;;
64242;SDS011;50573;51.512;5.386;2023-03-14T05:57:11;10.75;;;3.83;;
64242;SDS011;50573;51.512;5.386;2023-03-14T06:07:44;9.37;;;4.00;;
64242;SDS011;50573;51.512;5.386;2023-03-14T06:17:49;15.18;;;4.68;;
64242;SDS011;50573;51.512;5.386;2023-03-14T06:27:52;9.30;;;4.90;;
64242;SDS011;50573;51.512;5.386;2023-03-14T06:37:57;12.05;;;4.88;;
64242;SDS011;50573;51.512;5.386;2023-03-14T06:48:04;8.63;;;5.38;;
64242;SDS011;50573;51.512;5.386;2023-03-14T06:58:28;10.35;;;5.35;;
64242;SDS011;50573;51.512;5.386;2023-03-14T07:08:32;9.10;;;4.90;;
64242;SDS011;50573;51.512;5.386;2023-03-14T07:18:38;8.97;;;4.67;;
64242;SDS011;50573;51.512;5.386;2023-03-14T07:28:42;13.93;;;5.57;;
64242;SDS011;50573;51.512;5.386;2023-03-14T07:38:50;2.45;;;1.30;;
64242;SDS011;50573;51.512;5.386;2023-03-14T07:49:16;2.17;;;1.13;;
64242;SDS011;50573;51.512;5.386;2023-03-14T07:59:20;3.97;;;1.13;;
64242;SDS011;50573;51.512;5.386;2023-03-14T08:09:23;4.97;;;2.60;;
64242;SDS011;50573;51.512;5.386;2023-03-14T08:19:28;4.53;;;2.42;;
64242;SDS011;50573;51.512;5.386;2023-03-14T08:29:31;3.60;;;1.20;;
64242;SDS011;50573;51.512;5.386;2023-03-14T08:39:36;4.15;;;1.40;;
64242;SDS011;50573;51.512;5.386;2023-03-14T08:49:39;12.83;;;2.77;;
64242;SDS011;50573;51.512;5.386;2023-03-14T08:59:44;8.68;;;2.13;;
64242;SDS011;50573;51.512;5.386;2023-03-14T09:09:47;6.70;;;2.23;;
64242;SDS011;50573;51.512;5.386;2023-03-14T09:19:51;6.13;;;2.17;;
64242;SDS011;50573;51.512;5.386;2023-03-14T09:29:54;7.83;;;2.40;;
64242;SDS011;50573;51.512;5.386;2023-03-14T09:39:58;5.63;;;1.10;;
64242;SDS011;50573;51.512;5.386;2023-03-14T09:50:02;3.73;;;0.77;;
64242;SDS011;50573;51.512;5.386;2023-03-14T10:10:17;2.35;;;0.82;;
64242;SDS011;50573;51.512;5.386;2023-03-14T10:20:28;7.00;;;1.00;;
64242;SDS011;50573;51.512;5.386;2023-03-14T10:30:38;7.53;;;1.23;;
64242;SDS011;50573;51.512;5.386;2023-03-14T10:40:48;9.18;;;1.50;;
64242;SDS011;50573;51.512;5.386;2023-03-14T10:50:55;17.40;;;2.70;;
64242;SDS011;50573;51.512;5.386;2023-03-14T11:11:14;16.02;;;2.95;;
64242;SDS011;50573;51.512;5.386;2023-03-14T11:21:25;20.02;;;2.92;;
64242;SDS011;50573;51.512;5.386;2023-03-14T11:31:34;17.25;;;3.55;;
64242;SDS011;50573;51.512;5.386;2023-03-14T11:41:44;17.02;;;2.58;;
64242;SDS011;50573;51.512;5.386;2023-03-14T11:51:50;14.13;;;2.95;;
64242;SDS011;50573;51.512;5.386;2023-03-14T12:01:59;28.17;;;4.40;;
64242;SDS011;50573;51.512;5.386;2023-03-14T12:12:06;21.38;;;3.45;;
64242;SDS011;50573;51.512;5.386;2023-03-14T12:22:32;26.02;;;3.95;;
64242;SDS011;50573;51.512;5.386;2023-03-14T12:32:37;28.48;;;3.95;;
64242;SDS011;50573;51.512;5.386;2023-03-14T12:42:45;32.47;;;4.30;;
64242;SDS011;50573;51.512;5.386;2023-03-14T13:03:46;31.97;;;4.53;;
64242;SDS011;50573;51.512;5.386;2023-03-14T13:13:56;21.02;;;2.97;;
64242;SDS011;50573;51.512;5.386;2023-03-14T13:24:02;18.58;;;3.20;;
64242;SDS011;50573;51.512;5.386;2023-03-14T13:34:09;12.15;;;3.13;;
64242;SDS011;50573;51.512;5.386;2023-03-14T13:44:15;15.73;;;2.60;;
64242;SDS011;50573;51.512;5.386;2023-03-14T13:54:21;23.38;;;2.80;;
64242;SDS011;50573;51.512;5.386;2023-03-14T14:04:26;14.27;;;2.83;;
64242;SDS011;50573;51.512;5.386;2023-03-14T14:14:31;19.15;;;2.78;;
64242;SDS011;50573;51.512;5.386;2023-03-14T14:24:38;11.60;;;2.20;;
64242;SDS011;50573;51.512;5.386;2023-03-14T14:34:43;12.00;;;1.90;;
64242;SDS011;50573;51.512;5.386;2023-03-14T14:44:52;16.95;;;2.22;;
64242;SDS011;50573;51.512;5.386;2023-03-14T14:54:57;9.70;;;2.25;;
64242;SDS011;50573;51.512;5.386;2023-03-14T15:05:03;10.63;;;2.20;;
64242;SDS011;50573;51.512;5.386;2023-03-14T15:15:07;13.20;;;2.13;;
64242;SDS011;50573;51.512;5.386;2023-03-14T15:25:13;14.43;;;2.00;;
64242;SDS011;50573;51.512;5.386;2023-03-14T15:35:36;16.53;;;1.53;;
64242;SDS011;50573;51.512;5.386;2023-03-14T15:45:41;12.65;;;1.85;;
64242;SDS011;50573;51.512;5.386;2023-03-14T15:55:47;19.97;;;2.47;;
64242;SDS011;50573;51.512;5.386;2023-03-14T16:05:52;13.93;;;2.70;;
64242;SDS011;50573;51.512;5.386;2023-03-14T16:16:05;12.05;;;2.08;;
64242;SDS011;50573;51.512;5.386;2023-03-14T16:26:16;16.60;;;2.60;;
64242;SDS011;50573;51.512;5.386;2023-03-14T16:36:20;14.05;;;2.60;;
64242;SDS011;50573;51.512;5.386;2023-03-14T16:46:36;11.77;;;2.28;;
64242;SDS011;50573;51.512;5.386;2023-03-14T16:56:39;12.43;;;2.35;;
64242;SDS011;50573;51.512;5.386;2023-03-14T17:06:46;16.33;;;2.05;;
64242;SDS011;50573;51.512;5.386;2023-03-14T17:16:51;14.38;;;4.55;;
64242;SDS011;50573;51.512;5.386;2023-03-14T17:27:00;18.27;;;3.28;;
64242;SDS011;50573;51.512;5.386;2023-03-14T17:37:10;25.33;;;3.15;;
64242;SDS011;50573;51.512;5.386;2023-03-14T17:47:15;18.30;;;2.53;;
64242;SDS011;50573;51.512;5.386;2023-03-14T17:57:18;14.27;;;2.33;;
64242;SDS011;50573;51.512;5.386;2023-03-14T18:07:23;17.38;;;3.08;;
64242;SDS011;50573;51.512;5.386;2023-03-14T18:17:26;17.10;;;2.43;;
64242;SDS011;50573;51.512;5.386;2023-03-14T18:27:30;15.65;;;3.05;;
64242;SDS011;50573;51.512;5.386;2023-03-14T18:37:33;11.87;;;2.57;;
64242;SDS011;50573;51.512;5.386;2023-03-14T18:47:38;13.27;;;3.60;;
64242;SDS011;50573;51.512;5.386;2023-03-14T18:57:41;10.97;;;3.70;;
64242;SDS011;50573;51.512;5.386;2023-03-14T19:07:46;14.80;;;3.83;;
64242;SDS011;50573;51.512;5.386;2023-03-14T19:17:48;25.27;;;4.10;;
64242;SDS011;50573;51.512;5.386;2023-03-14T19:27:56;16.65;;;4.15;;
64242;SDS011;50573;51.512;5.386;2023-03-14T19:37:59;14.23;;;2.33;;
64242;SDS011;50573;51.512;5.386;2023-03-14T19:48:04;17.88;;;3.75;;
64242;SDS011;50573;51.512;5.386;2023-03-14T19:58:08;16.85;;;3.85;;
64242;SDS011;50573;51.512;5.386;2023-03-14T20:08:15;17.77;;;4.70;;
64242;SDS011;50573;51.512;5.386;2023-03-14T20:18:18;24.03;;;5.80;;
64242;SDS011;50573;51.512;5.386;2023-03-14T20:28:25;16.77;;;4.75;;
64242;SDS011;50573;51.512;5.386;2023-03-14T20:38:28;15.07;;;3.33;;
64242;SDS011;50573;51.512;5.386;2023-03-14T20:48:32;14.20;;;3.60;;
64242;SDS011;50573;51.512;5.386;2023-03-14T20:58:35;20.67;;;3.80;;
64242;SDS011;50573;51.512;5.386;2023-03-14T21:08:40;14.60;;;4.90;;
64242;SDS011;50573;51.512;5.386;2023-03-14T21:18:44;19.00;;;4.47;;
64242;SDS011;50573;51.512;5.386;2023-03-14T21:28:48;19.77;;;5.07;;
64242;SDS011;50573;51.512;5.386;2023-03-14T21:38:51;17.13;;;4.87;;
64242;SDS011;50573;51.512;5.386;2023-03-14T21:48:55;21.10;;;5.22;;
64242;SDS011;50573;51.512;5.386;2023-03-14T21:58:58;26.90;;;6.00;;
64242;SDS011;50573;51.512;5.386;2023-03-14T22:09:05;15.25;;;4.40;;
64242;SDS011;50573;51.512;5.386;2023-03-14T22:19:08;18.40;;;4.97;;
64242;SDS011;50573;51.512;5.386;2023-03-14T22:29:12;15.75;;;4.22;;
64242;SDS011;50573;51.512;5.386;2023-03-14T22:39:16;12.13;;;4.20;;
64242;SDS011;50573;51.512;5.386;2023-03-14T22:49:21;16.27;;;3.35;;
64242;SDS011;50573;51.512;5.386;2023-03-14T22:59:24;10.77;;;2.00;;
64242;SDS011;50573;51.512;5.386;2023-03-14T23:09:28;7.97;;;1.45;;
64242;SDS011;50573;51.512;5.386;2023-03-14T23:19:32;8.57;;;1.95;;
64242;SDS011;50573;51.512;5.386;2023-03-14T23:29:40;6.65;;;1.33;;
64242;SDS011;50573;51.512;5.386;2023-03-14T23:39:43;5.17;;;1.13;;
64242;SDS011;50573;51.512;5.386;2023-03-14T23:49:48;7.72;;;2.13;;
64242;SDS011;50573;51.512;5.386;2023-03-14T23:59:51;6.07;;;1.93;;
